createdAt,value
2023-09-27T00:00:59.898Z,3.700
2023-09-27T00:02:00.005Z,4.199
2023-09-27T00:02:57.619Z,3.900
2023-09-27T00:03:57.714Z,4.800
2023-09-27T00:04:58.674Z,3.599
2023-09-27T00:05:57.675Z,4
2023-09-27T00:07:56.229Z,4.300
2023-09-27T00:08:55.405Z,4
2023-09-27T00:09:53.561Z,3.200
2023-09-27T00:11:00.029Z,4.599
2023-09-27T00:11:56.939Z,4.099
2023-09-27T00:13:56.425Z,4.199
2023-09-27T00:14:56.195Z,3.5
2023-09-27T00:15:56.303Z,3.799
2023-09-27T00:16:54.982Z,3.700
2023-09-27T00:17:53.638Z,3.599
2023-09-27T00:18:52.195Z,3.799
2023-09-27T00:19:51.955Z,4.099
2023-09-27T00:20:55.881Z,4.400
2023-09-27T00:21:55.007Z,3.700
2023-09-27T00:22:54.833Z,4
2023-09-27T00:23:54.840Z,3.900
2023-09-27T00:24:54.114Z,4.400
2023-09-27T00:25:54.375Z,3.400
2023-09-27T00:27:54.021Z,3.799
2023-09-27T00:28:53.698Z,3.700
2023-09-27T00:30:55.855Z,4.099
2023-09-27T00:31:55.103Z,3.5
2023-09-27T00:32:55.064Z,3.700
2023-09-27T00:33:54.261Z,3.5
2023-09-27T00:34:54.160Z,2.900
2023-09-27T00:35:54.835Z,3.599
2023-09-27T00:36:53.757Z,3.200
2023-09-27T00:37:54.160Z,3.099
2023-09-27T00:38:53.948Z,3.700
2023-09-27T00:39:54.278Z,3.900
2023-09-27T00:40:57.959Z,3.799
2023-09-27T00:41:56.358Z,3.299
2023-09-27T00:42:55.274Z,4.199
2023-09-27T00:43:54.825Z,3.599
2023-09-27T00:44:54.298Z,3.099
2023-09-27T00:45:56.994Z,3.599
2023-09-27T00:46:56.477Z,3.200
2023-09-27T00:47:55.806Z,4.400
2023-09-27T00:48:55.363Z,3.799
2023-09-27T00:50:56.369Z,3.400
2023-09-27T00:53:54.074Z,3
2023-09-27T00:54:53.930Z,3.900
2023-09-27T00:55:54.607Z,3.200
2023-09-27T00:56:55.435Z,3.900
2023-09-27T00:57:55.163Z,3.400
2023-09-27T00:58:53.559Z,4.400
2023-09-27T00:59:53.569Z,3.599
2023-09-27T01:00:57.030Z,4
2023-09-27T01:01:56.119Z,3.599
2023-09-27T01:02:55.816Z,3.400
2023-09-27T01:03:56.231Z,4.699
2023-09-27T01:04:53.510Z,3.200
2023-09-27T01:06:54.432Z,3.5
2023-09-27T01:07:54.108Z,5.300
2023-09-27T01:08:54.131Z,3.400
2023-09-27T01:09:54.452Z,3.599
2023-09-27T01:10:58.500Z,4.400
2023-09-27T01:11:56.804Z,4
2023-09-27T01:12:54.903Z,3.900
2023-09-27T01:15:55.365Z,4
2023-09-27T01:16:56.785Z,4.5
2023-09-27T01:17:57.276Z,3.299
2023-09-27T01:18:58.432Z,3.200
2023-09-27T01:19:57.459Z,3.599
2023-09-27T01:21:02.717Z,3.700
2023-09-27T01:22:56.469Z,3.400
2023-09-27T01:23:56.796Z,3.700
2023-09-27T01:24:57.634Z,5.099
2023-09-27T01:25:59.469Z,3.700
2023-09-27T01:26:59.210Z,4
2023-09-27T01:28:58.734Z,3.5
2023-09-27T01:29:57.582Z,4.400
2023-09-27T01:30:58.326Z,4.599
2023-09-27T01:31:56.858Z,3.5
2023-09-27T01:32:56.290Z,4.199
2023-09-27T01:33:51.852Z,3.900
2023-09-27T01:34:51.752Z,3.799
2023-09-27T01:35:51.382Z,3
2023-09-27T01:36:51.563Z,3.200
2023-09-27T01:37:52.262Z,3.799
2023-09-27T01:38:52.410Z,4.400
2023-09-27T01:39:52.268Z,3.799
2023-09-27T01:40:55.439Z,3.900
2023-09-27T01:41:54.418Z,3.400
2023-09-27T01:43:52.406Z,3.200
2023-09-27T01:44:52.798Z,3.900
2023-09-27T01:45:53.369Z,3.799
2023-09-27T01:46:53.528Z,4.300
2023-09-27T01:47:52.777Z,5
2023-09-27T01:48:53.734Z,3.900
2023-09-27T01:50:53.602Z,3.599
2023-09-27T01:51:53.381Z,3.900
2023-09-27T01:52:53.501Z,4.099
2023-09-27T01:53:52.934Z,5.900
2023-09-27T01:54:52.813Z,4.300
2023-09-27T01:55:52.589Z,3.5
2023-09-27T01:56:52.895Z,3.700
2023-09-27T01:57:53.537Z,3.900
2023-09-27T01:58:54.622Z,4.800
2023-09-27T01:59:53.708Z,3.799
2023-09-27T02:00:55.838Z,4.400
2023-09-27T02:01:55.657Z,4.199
2023-09-27T02:02:55.324Z,3.200
2023-09-27T02:03:54.715Z,4.400
2023-09-27T02:04:55.858Z,4
2023-09-27T02:05:56.154Z,3.799
2023-09-27T02:06:56.862Z,3.700
2023-09-27T02:07:57.601Z,5.099
2023-09-27T02:08:58.206Z,4.599
2023-09-27T02:09:55.373Z,3.700
2023-09-27T02:11:00.374Z,3.400
2023-09-27T02:11:58.030Z,3.5
2023-09-27T02:12:56.113Z,4.400
2023-09-27T02:13:55.637Z,3.900
2023-09-27T02:14:56.377Z,4.099
2023-09-27T02:15:56.119Z,5
2023-09-27T02:16:55.782Z,3.200
2023-09-27T02:17:55.461Z,3.400
2023-09-27T02:18:55.847Z,4
2023-09-27T02:19:55.166Z,3.700
2023-09-27T02:20:58.379Z,4.099
2023-09-27T02:21:54.963Z,3.599
2023-09-27T02:22:54.958Z,3.299
2023-09-27T02:23:55.812Z,4.599
2023-09-27T02:24:54.917Z,3.799
2023-09-27T02:25:55.807Z,3.5
2023-09-27T02:26:55.838Z,3.900
2023-09-27T02:27:55.604Z,3.700
2023-09-27T02:29:55.753Z,3.5
2023-09-27T02:30:57.109Z,3.200
2023-09-27T02:31:54.381Z,4.400
2023-09-27T02:32:55.865Z,4
2023-09-27T02:33:54.509Z,4.199
2023-09-27T02:34:55.072Z,4.099
2023-09-27T02:35:56.435Z,3.5
2023-09-27T02:36:56.626Z,4.599
2023-09-27T02:37:54.760Z,3
2023-09-27T02:38:54.869Z,4.5
2023-09-27T02:39:55.885Z,4
2023-09-27T02:40:59.494Z,3.599
2023-09-27T02:41:57.867Z,3.799
2023-09-27T02:42:56.290Z,4.300
2023-09-27T02:43:54.151Z,4.900
2023-09-27T02:44:55.841Z,3.599
2023-09-27T02:45:57.639Z,3.299
2023-09-27T02:46:55.445Z,3.200
2023-09-27T02:47:56.215Z,3.900
2023-09-27T02:48:55.372Z,4.699
2023-09-27T02:49:56.031Z,3.799
2023-09-27T02:50:57.432Z,3.5
2023-09-27T02:51:55.397Z,3.700
2023-09-27T02:52:55.751Z,3.799
2023-09-27T02:53:54.850Z,4.599
2023-09-27T02:54:56.055Z,4
2023-09-27T02:55:56.194Z,3.900
2023-09-27T02:56:56.765Z,3.5
2023-09-27T02:57:57.008Z,3.299
2023-09-27T02:58:56.788Z,3.900
2023-09-27T02:59:56.632Z,4.199
2023-09-27T03:01:02.490Z,4.400
2023-09-27T03:01:54.118Z,3.700
2023-09-27T03:02:52.280Z,3.400
2023-09-27T03:03:48.935Z,4.599
2023-09-27T03:04:52.868Z,3.5
2023-09-27T03:05:55.033Z,3.099
2023-09-27T03:06:56.033Z,5.199
2023-09-27T03:07:56.789Z,3.400
2023-09-27T03:08:57.401Z,3.700
2023-09-27T03:09:57.349Z,4.599
2023-09-27T03:11:03.644Z,3.400
2023-09-27T03:11:57.401Z,3.900
2023-09-27T03:12:57.338Z,4.400
2023-09-27T03:13:51.753Z,3.700
2023-09-27T03:14:52.724Z,3.799
2023-09-27T03:15:53.986Z,4
2023-09-27T03:16:54.172Z,3.900
2023-09-27T03:17:55.775Z,4
2023-09-27T03:18:56.461Z,3.799
2023-09-27T03:19:56.913Z,3.599
2023-09-27T03:21:00.556Z,2.900
2023-09-27T03:21:58.995Z,3.599
2023-09-27T03:22:56.571Z,4.199
2023-09-27T03:23:57.376Z,3.400
2023-09-27T03:24:57.575Z,3.799
2023-09-27T03:25:58.420Z,4.199
2023-09-27T03:26:58.226Z,4.400
2023-09-27T03:27:57.940Z,3.099
2023-09-27T03:28:56.702Z,3.799
2023-09-27T03:29:54.626Z,4.400
2023-09-27T03:31:01.343Z,4.300
2023-09-27T03:32:00.437Z,3.5
2023-09-27T03:32:59.024Z,3.299
2023-09-27T03:33:57.466Z,4
2023-09-27T03:35:58.001Z,3.5
2023-09-27T03:36:57.740Z,3.599
2023-09-27T03:37:55.240Z,3.799
2023-09-27T03:38:54.521Z,4.5
2023-09-27T03:39:54.575Z,4
2023-09-27T03:40:59.536Z,3.099
2023-09-27T03:41:57.903Z,3.799
2023-09-27T03:42:57.396Z,3.5
2023-09-27T03:43:55.677Z,4
2023-09-27T03:44:55.839Z,3.400
2023-09-27T03:46:01.902Z,4.300
2023-09-27T03:46:58.265Z,4
2023-09-27T03:47:59.254Z,4.699
2023-09-27T03:48:59.066Z,3.700
2023-09-27T03:49:57.980Z,4.5
2023-09-27T03:51:05.331Z,4.300
2023-09-27T03:53:00.675Z,3.599
2023-09-27T03:54:00.183Z,4
2023-09-27T03:54:59.251Z,4.599
2023-09-27T03:55:58.923Z,3.5
2023-09-27T03:56:58.854Z,2.900
2023-09-27T03:57:59.445Z,4.199
2023-09-27T03:58:59.539Z,3.599
2023-09-27T03:59:58.178Z,3.700
2023-09-27T04:01:05.180Z,3.299
2023-09-27T04:01:58.522Z,4.099
2023-09-27T04:02:58.313Z,3.299
2023-09-27T04:04:00.349Z,3.700
2023-09-27T04:05:01.281Z,3.299
2023-09-27T04:06:01.644Z,4.300
2023-09-27T04:07:01.460Z,3.599
2023-09-27T04:07:59.390Z,3.400
2023-09-27T04:09:01.805Z,3.599
2023-09-27T04:09:55.387Z,4.599
2023-09-27T04:11:09.976Z,3.5
2023-09-27T04:12:02.204Z,4
2023-09-27T04:12:57.222Z,3.599
2023-09-27T04:14:00.857Z,4.199
2023-09-27T04:15:04.218Z,3
2023-09-27T04:15:56.130Z,4.400
2023-09-27T04:17:55.360Z,3.700
2023-09-27T04:18:59.766Z,3.400
2023-09-27T04:19:59.413Z,3.599
2023-09-27T04:21:09.188Z,3.5
2023-09-27T04:22:02.386Z,4.099
2023-09-27T04:22:55.764Z,4
2023-09-27T04:23:59.456Z,3.700
2023-09-27T04:25:01.765Z,3.299
2023-09-27T04:25:57.556Z,4.099
2023-09-27T04:26:59.332Z,3.599
2023-09-27T04:27:57.661Z,3.900
2023-09-27T04:28:59.325Z,3.700
2023-09-27T04:29:59.684Z,3.400
2023-09-27T04:31:05.786Z,3.900
2023-09-27T04:31:59.851Z,3.099
2023-09-27T04:33:02.960Z,4.300
2023-09-27T04:33:56.979Z,4.699
2023-09-27T04:34:59.146Z,4
2023-09-27T04:36:59.699Z,3.900
2023-09-27T04:37:57.804Z,3.700
2023-09-27T04:38:57.689Z,3.799
2023-09-27T04:39:58.811Z,5.099
2023-09-27T04:41:05.208Z,3.400
2023-09-27T04:41:55.156Z,3.700
2023-09-27T04:42:56.697Z,3.5
2023-09-27T04:43:54.959Z,4.800
2023-09-27T04:44:57.978Z,4.300
2023-09-27T04:46:02.239Z,5
2023-09-27T04:46:54.638Z,4.400
2023-09-27T04:47:54.221Z,5.099
2023-09-27T04:48:54.333Z,4.199
2023-09-27T04:49:58.702Z,3.799
2023-09-27T04:51:01.352Z,5.5
2023-09-27T04:51:59.083Z,4.099
2023-09-27T04:52:58.503Z,4
2023-09-27T04:53:57.249Z,4.400
2023-09-27T04:54:58.985Z,5.199
2023-09-27T04:56:01.179Z,4.199
2023-09-27T04:57:01.669Z,3.700
2023-09-27T04:57:58.166Z,4.400
2023-09-27T04:58:55.344Z,5.199
2023-09-27T04:59:58.397Z,4.800
2023-09-27T05:01:08.159Z,4.300
2023-09-27T05:02:00.210Z,5.599
2023-09-27T05:03:02.394Z,4.199
2023-09-27T05:06:00.511Z,4.699
2023-09-27T05:07:01.852Z,3.5
2023-09-27T05:07:53.709Z,4.300
2023-09-27T05:08:56.180Z,3.700
2023-09-27T05:12:02.370Z,4.699
2023-09-27T05:12:59.439Z,3.799
2023-09-27T05:14:58.830Z,4.199
2023-09-27T05:16:03.610Z,4
2023-09-27T05:16:56.460Z,3.599
2023-09-27T05:17:59.888Z,4.400
2023-09-27T05:19:01.196Z,3.799
2023-09-27T05:20:01.259Z,4.099
2023-09-27T05:21:08.273Z,2.700
2023-09-27T05:22:00.446Z,4.099
2023-09-27T05:23:54.022Z,3.099
2023-09-27T05:24:58.477Z,4.199
2023-09-27T05:25:59.014Z,3.400
2023-09-27T05:27:03.222Z,4.099
2023-09-27T05:27:57.117Z,5.199
2023-09-27T05:29:02.171Z,4.099
2023-09-27T05:29:57.880Z,3.599
2023-09-27T05:31:09.953Z,4.099
2023-09-27T05:32:03.738Z,3.900
2023-09-27T05:32:55.966Z,3.799
2023-09-27T05:33:58.085Z,4.199
2023-09-27T05:34:56.880Z,3.599
2023-09-27T05:35:58.365Z,4.300
2023-09-27T05:37:00.088Z,2.900
2023-09-27T05:38:00.429Z,3.799
2023-09-27T05:39:00.810Z,3.5
2023-09-27T05:40:00.644Z,3.700
2023-09-27T05:41:09.619Z,3.599
2023-09-27T05:42:03.454Z,3.400
2023-09-27T05:43:59.049Z,4.099
2023-09-27T05:45:59.949Z,5
2023-09-27T05:47:05.541Z,4.800
2023-09-27T05:47:57.567Z,4.300
2023-09-27T05:49:01.897Z,5.099
2023-09-27T05:49:59.951Z,4.199
2023-09-27T05:51:05.964Z,5.599
2023-09-27T05:51:58.541Z,5
2023-09-27T05:53:02.957Z,5.300
2023-09-27T05:53:55.577Z,4.5
2023-09-27T05:54:58.937Z,5.099
2023-09-27T05:56:00.784Z,5
2023-09-27T05:57:01.336Z,6.099
2023-09-27T05:58:00.814Z,4.900
2023-09-27T05:59:01.257Z,4.599
2023-09-27T05:59:57.713Z,4.099
2023-09-27T06:01:09.443Z,4.900
2023-09-27T06:02:02.512Z,5.300
2023-09-27T06:02:58.456Z,4.199
2023-09-27T06:04:03.766Z,4.800
2023-09-27T06:04:56.368Z,4.199
2023-09-27T06:06:02.306Z,5.099
2023-09-27T06:06:57.663Z,4.800
2023-09-27T06:07:58.142Z,4.300
2023-09-27T06:08:59.907Z,3.700
2023-09-27T06:10:01.308Z,4.099
2023-09-27T06:11:16.010Z,4.300
2023-09-27T06:12:00.340Z,3.599
2023-09-27T06:13:11.144Z,3.5
2023-09-27T06:15:00.982Z,3.099
2023-09-27T06:16:11.198Z,4.800
2023-09-27T06:17:01.869Z,4.900
2023-09-27T06:17:56.346Z,4.699
2023-09-27T06:20:01.103Z,4.599
2023-09-27T06:21:11.505Z,3.700
2023-09-27T06:22:03.866Z,3.599
2023-09-27T06:22:56.991Z,3.799
2023-09-27T06:25:02.678Z,3.900
2023-09-27T06:27:57.336Z,4.199
2023-09-27T06:29:02.708Z,4.300
2023-09-27T06:29:54.612Z,3.599
2023-09-27T06:31:04.709Z,4.199
2023-09-27T06:31:54.861Z,4.300
2023-09-27T06:33:01.041Z,5.199
2023-09-27T06:34:00.702Z,4.599
2023-09-27T06:35:59.025Z,6.099
2023-09-27T06:37:05.485Z,5.699
2023-09-27T06:37:57.667Z,4.599
2023-09-27T06:39:04.545Z,5.900
2023-09-27T06:39:58.625Z,5.199
2023-09-27T06:41:10.934Z,6.599
2023-09-27T06:42:02.491Z,7.699
2023-09-27T06:42:58.434Z,7.400
2023-09-27T06:44:03.534Z,5.800
2023-09-27T06:44:58.177Z,6.300
2023-09-27T06:46:09.272Z,5.300
2023-09-27T06:47:02.371Z,5.400
2023-09-27T06:47:57.623Z,4.5
2023-09-27T06:49:03.033Z,3.799
2023-09-27T06:49:57.021Z,4.5
2023-09-27T06:52:00.218Z,3.200
2023-09-27T06:53:21.327Z,4.099
2023-09-27T06:54:55.728Z,6
2023-09-27T06:56:04.349Z,7.900
2023-09-27T06:56:57.849Z,5.199
2023-09-27T06:58:00.439Z,6.300
2023-09-27T06:59:02.518Z,5.699
2023-09-27T06:59:55.867Z,6.099
2023-09-27T07:01:05.184Z,5.400
2023-09-27T07:01:55.010Z,6.099
2023-09-27T07:03:02.242Z,5.099
2023-09-27T07:03:54.826Z,7
2023-09-27T07:04:58.539Z,9
2023-09-27T07:06:05.572Z,7.699
2023-09-27T07:06:59.523Z,10
2023-09-27T07:08:08.336Z,8.5
2023-09-27T07:09:02.242Z,7.599
2023-09-27T07:09:55.775Z,6.199
2023-09-27T07:11:10.015Z,8.199
2023-09-27T07:12:07.975Z,6.199
2023-09-27T07:13:07.021Z,5.699
2023-09-27T07:13:58.603Z,6.099
2023-09-27T07:15:09.308Z,10
2023-09-27T07:16:03.085Z,9.399
2023-09-27T07:17:01.837Z,7.599
2023-09-27T07:17:55.558Z,6.300
2023-09-27T07:19:04.175Z,7.699
2023-09-27T07:19:57.157Z,6.5
2023-09-27T07:21:08.641Z,5.599
2023-09-27T07:22:03.513Z,5.5
2023-09-27T07:22:57.731Z,7
2023-09-27T07:23:58.439Z,4.699
2023-09-27T07:25:02.001Z,5.400
2023-09-27T07:25:57.822Z,8.399
2023-09-27T07:27:02.452Z,6.099
2023-09-27T07:27:57.071Z,9.600
2023-09-27T07:29:01.744Z,6.599
2023-09-27T07:29:59.952Z,7.099
2023-09-27T07:31:09.360Z,6
2023-09-27T07:32:05.256Z,4.699
2023-09-27T07:33:00.379Z,5.300
2023-09-27T07:34:05.938Z,5.400
2023-09-27T07:34:59.612Z,5.900
2023-09-27T07:36:10.019Z,4.900
2023-09-27T07:37:02.450Z,5.5
2023-09-27T07:37:57.491Z,5.400
2023-09-27T07:39:01.832Z,6.099
2023-09-27T07:39:56.326Z,5.099
2023-09-27T07:41:05.581Z,7.5
2023-09-27T07:41:57.882Z,4.5
2023-09-27T07:43:01.631Z,5.800
2023-09-27T07:44:03.426Z,6.199
2023-09-27T07:44:58.645Z,5.400
2023-09-27T07:46:11.697Z,5
2023-09-27T07:47:08.044Z,5.5
2023-09-27T07:47:58.717Z,4.900
2023-09-27T07:49:04.351Z,5.599
2023-09-27T07:49:55.886Z,6.099
2023-09-27T07:51:03.578Z,4.5
2023-09-27T07:51:55.008Z,5.400
2023-09-27T07:52:59.397Z,6.400
2023-09-27T07:53:59.290Z,6.099
2023-09-27T07:55:02.125Z,4.099
2023-09-27T07:55:57.241Z,4.5
2023-09-27T07:57:02.073Z,5
2023-09-27T07:57:55.749Z,6.199
2023-09-27T07:58:56.713Z,6.099
2023-09-27T08:00:00.639Z,5.599
2023-09-27T08:01:10.141Z,4.599
2023-09-27T08:02:02.599Z,5.400
2023-09-27T08:02:59.595Z,5.099
2023-09-27T08:04:02.866Z,7.400
2023-09-27T08:04:57.849Z,6.400
2023-09-27T08:06:11.224Z,6.099
2023-09-27T08:07:04.091Z,8.100
2023-09-27T08:07:59.589Z,6.099
2023-09-27T08:09:03.846Z,5.5
2023-09-27T08:09:55.381Z,6.300
2023-09-27T08:11:17.858Z,5.900
2023-09-27T08:12:13.855Z,6.099
2023-09-27T08:13:14.102Z,5.699
2023-09-27T08:13:59.107Z,5.199
2023-09-27T08:15:19.633Z,5.300
2023-09-27T08:16:18.508Z,7.099
2023-09-27T08:17:05.418Z,4.900
2023-09-27T08:18:01.249Z,5.5
2023-09-27T08:19:58.683Z,5.599
2023-09-27T08:21:11.963Z,5.199
2023-09-27T08:22:03.749Z,6.5
2023-09-27T08:22:57.085Z,7.599
2023-09-27T08:24:00.257Z,6.199
2023-09-27T08:25:04.729Z,6.599
2023-09-27T08:25:59.525Z,7.300
2023-09-27T08:27:08.515Z,6.300
2023-09-27T08:28:02.446Z,6.199
2023-09-27T08:28:57.540Z,7.5
2023-09-27T08:29:59.653Z,4.800
2023-09-27T08:31:08.588Z,7.099
2023-09-27T08:32:02.676Z,6.300
2023-09-27T08:32:57.996Z,5.400
2023-09-27T08:33:59.942Z,7.199
2023-09-27T08:35:05.220Z,8.399
2023-09-27T08:36:00.857Z,7.099
2023-09-27T08:37:12.946Z,6.099
2023-09-27T08:38:04.274Z,6.199
2023-09-27T08:39:02.415Z,7
2023-09-27T08:39:58.705Z,6.099
2023-09-27T08:41:18.899Z,7
2023-09-27T08:42:18.310Z,6.900
2023-09-27T08:43:14.804Z,7.699
2023-09-27T08:44:01.698Z,13.30
2023-09-27T08:45:16.458Z,9.399
2023-09-27T08:46:22.794Z,8.699
2023-09-27T08:47:14.572Z,8.800
2023-09-27T08:48:06.416Z,7.099
2023-09-27T08:49:08.799Z,5.800
2023-09-27T08:50:18.920Z,6.599
2023-09-27T08:51:19.610Z,5.199
2023-09-27T08:52:14.392Z,5.400
2023-09-27T08:54:06.598Z,5.699
2023-09-27T08:55:02.754Z,5
2023-09-27T08:56:07.419Z,7.099
2023-09-27T08:57:13.897Z,4.5
2023-09-27T08:57:58.691Z,5.599
2023-09-27T08:59:14.217Z,8.399
2023-09-27T09:00:10.701Z,6.199
2023-09-27T09:01:17.981Z,7.5
2023-09-27T09:02:13.674Z,6.800
2023-09-27T09:03:01.004Z,5.699
2023-09-27T09:04:18.523Z,7.099
2023-09-27T09:05:02.560Z,5.099
2023-09-27T09:06:07.747Z,6.300
2023-09-27T09:07:20.737Z,5.699
2023-09-27T09:08:01.529Z,5.300
2023-09-27T09:09:20.031Z,5.5
2023-09-27T09:10:12.696Z,7.199
2023-09-27T09:11:26.434Z,4.699
2023-09-27T09:12:31.735Z,5.599
2023-09-27T09:13:40.423Z,6.300
2023-09-27T09:14:39.905Z,6.5
2023-09-27T09:16:02.468Z,6.400
2023-09-27T09:16:15.284Z,5.900
2023-09-27T09:17:38.956Z,5.199
2023-09-27T09:18:43.221Z,6.5
2023-09-27T09:19:48.006Z,5
2023-09-27T09:20:15.635Z,6.699
2023-09-27T09:22:01.045Z,5.900
2023-09-27T09:22:20.367Z,7.599
2023-09-27T09:23:37.419Z,7.199
2023-09-27T09:25:46.752Z,7.599
2023-09-27T09:26:56.244Z,7.5
2023-09-27T09:27:23.071Z,7.300
2023-09-27T09:29:01.387Z,7.400
2023-09-27T09:29:32.236Z,7.599
2023-09-27T09:30:33.273Z,5.5
2023-09-27T09:32:08.000Z,6.800
2023-09-27T09:32:43.174Z,8.399
2023-09-27T09:33:34.026Z,5.400
2023-09-27T09:34:50.184Z,6.300
2023-09-27T09:35:55.889Z,7.199
2023-09-27T09:36:33.123Z,6.300
2023-09-27T09:37:54.065Z,6
2023-09-27T09:38:54.530Z,7
2023-09-27T09:39:28.781Z,4.900
2023-09-27T09:41:29.185Z,7
2023-09-27T09:41:55.964Z,5.699
2023-09-27T09:42:53.772Z,8.699
2023-09-27T09:43:53.977Z,13.39
2023-09-27T09:45:27.202Z,6.300
2023-09-27T09:46:02.586Z,4.800
2023-09-27T09:46:23.283Z,8
2023-09-27T09:47:34.615Z,8.100
2023-09-27T09:48:54.155Z,5.699
2023-09-27T09:50:20.214Z,5.300
2023-09-27T09:50:30.130Z,5.900
2023-09-27T09:51:39.166Z,7.5
2023-09-27T09:52:55.031Z,6.900
2023-09-27T09:53:59.376Z,5.099
2023-09-27T09:54:26.898Z,7.199
2023-09-27T09:56:28.768Z,8.699
2023-09-27T09:56:37.952Z,6.400
2023-09-27T09:57:27.709Z,4
2023-09-27T09:58:37.457Z,4.400
2023-09-27T09:59:45.264Z,4.599
2023-09-27T10:01:31.003Z,4.5
2023-09-27T10:02:53.989Z,3.299
2023-09-27T10:03:41.736Z,3.400
2023-09-27T10:04:47.509Z,3
2023-09-27T10:06:06.093Z,4.199
2023-09-27T10:06:24.242Z,4.300
2023-09-27T10:07:36.534Z,3.599
2023-09-27T10:08:47.322Z,4.400
2023-09-27T10:09:58.388Z,3.200
2023-09-27T10:10:30.383Z,5
2023-09-27T10:12:14.160Z,3.799
2023-09-27T10:12:40.193Z,3.099
2023-09-27T10:14:25.600Z,3.599
2023-09-27T10:14:54.400Z,3.299
2023-09-27T10:15:53.303Z,3.799
2023-09-27T10:16:47.238Z,3.900
2023-09-27T10:18:01.397Z,3.099
2023-09-27T10:19:28.608Z,4.099
2023-09-27T10:20:04.610Z,4.599
2023-09-27T10:20:23.809Z,3.099
2023-09-27T10:21:39.131Z,3.599
2023-09-27T10:23:21.746Z,4.099
2023-09-27T10:23:51.584Z,2.900
2023-09-27T10:24:38.958Z,4.699
2023-09-27T10:26:14.154Z,4.800
2023-09-27T10:26:58.371Z,3.5
2023-09-27T10:27:56.004Z,4.5
2023-09-27T10:29:27.062Z,4.199
2023-09-27T10:30:10.560Z,3.200
2023-09-27T10:30:11.111Z,3.5
2023-09-27T10:31:37.789Z,3.599
2023-09-27T10:32:57.675Z,2.700
2023-09-27T10:34:20.944Z,4.5
2023-09-27T10:35:07.439Z,3.200
2023-09-27T10:35:26.577Z,3.700
2023-09-27T10:36:55.349Z,3.099
2023-09-27T10:37:34.819Z,3.400
2023-09-27T10:38:46.867Z,3.599
2023-09-27T10:39:53.993Z,3
2023-09-27T10:41:07.991Z,5
2023-09-27T10:42:23.192Z,4.400
2023-09-27T10:42:25.284Z,3.299
2023-09-27T10:43:46.253Z,4.5
2023-09-27T10:44:50.205Z,3
2023-09-27T10:46:03.077Z,4.099
2023-09-27T10:46:22.300Z,5.099
2023-09-27T10:47:44.588Z,4
2023-09-27T10:48:30.179Z,3
2023-09-27T10:49:55.422Z,3.200
2023-09-27T10:50:14.021Z,3.299
2023-09-27T10:51:53.378Z,4
2023-09-27T10:52:15.290Z,3
2023-09-27T10:53:48.720Z,2.5
2023-09-27T10:54:24.933Z,3.200
2023-09-27T10:55:29.283Z,3.700
2023-09-27T10:56:33.462Z,4.800
2023-09-27T10:57:34.899Z,4.900
2023-09-27T10:58:53.746Z,3.200
2023-09-27T10:58:54.788Z,3.299
2023-09-27T11:00:30.756Z,2.900
2023-09-27T11:01:35.756Z,3
2023-09-27T11:02:51.468Z,2.900
2023-09-27T11:04:22.064Z,3.299
2023-09-27T11:05:14.291Z,3.599
2023-09-27T11:06:13.389Z,3.299
2023-09-27T11:06:58.821Z,3
2023-09-27T11:08:10.025Z,3.5
2023-09-27T11:09:03.712Z,3
2023-09-27T11:09:57.694Z,2.900
2023-09-27T11:11:11.691Z,3.299
2023-09-27T11:12:08.449Z,3.799
2023-09-27T11:13:02.667Z,3.099
2023-09-27T11:13:55.991Z,2.799
2023-09-27T11:14:58.146Z,3.599
2023-09-27T11:15:58.030Z,2.700
2023-09-27T11:16:57.777Z,3.400
2023-09-27T11:17:56.831Z,3.099
2023-09-27T11:18:58.952Z,2.700
2023-09-27T11:19:59.599Z,3.099
2023-09-27T11:21:06.176Z,2.700
2023-09-27T11:22:00.254Z,3.200
2023-09-27T11:22:59.824Z,2.799
2023-09-27T11:23:57.930Z,3
2023-09-27T11:27:00.529Z,3.400
2023-09-27T11:27:58.152Z,2.900
2023-09-27T11:34:02.658Z,4.5
2023-09-27T11:34:57.511Z,5
2023-09-27T11:36:02.207Z,3.099
2023-09-27T11:36:54.854Z,3.400
2023-09-27T11:39:00.014Z,4.599
2023-09-27T11:39:59.897Z,3.400
2023-09-27T11:41:11.180Z,3.299
2023-09-27T11:42:05.501Z,3.099
2023-09-27T11:42:57.709Z,4.5
2023-09-27T11:43:59.762Z,4.300
2023-09-27T11:45:01.961Z,3.900
2023-09-27T11:45:58.469Z,2.900
2023-09-27T11:47:01.917Z,4.5
2023-09-27T11:47:56.441Z,4.800
2023-09-27T11:49:00.075Z,2.900
2023-09-27T11:49:59.125Z,3.599
2023-09-27T11:51:59.541Z,3.200
2023-09-27T11:53:02.821Z,6
2023-09-27T11:53:54.070Z,3.5
2023-09-27T11:55:00.387Z,3.799
2023-09-27T11:56:02.101Z,3.400
2023-09-27T11:57:58.283Z,2.5
2023-09-27T11:58:59.984Z,3.299
2023-09-27T12:01:08.667Z,3.5
2023-09-27T12:02:09.237Z,3.299
2023-09-27T12:02:57.857Z,3.200
2023-09-27T12:04:01.927Z,3.099
2023-09-27T12:04:57.108Z,3.200
2023-09-27T12:05:59.507Z,3.5
2023-09-27T12:06:59.848Z,3
2023-09-27T12:08:01.046Z,4.599
2023-09-27T12:09:05.705Z,6.300
2023-09-27T12:09:59.249Z,6.599
2023-09-27T12:11:10.938Z,4.699
2023-09-27T12:12:02.463Z,5.099
2023-09-27T12:12:59.100Z,5
2023-09-27T12:14:02.329Z,4.199
2023-09-27T12:14:56.696Z,4.599
2023-09-27T12:16:00.228Z,3.799
2023-09-27T12:17:00.644Z,4.099
2023-09-27T12:17:59.597Z,4.800
2023-09-27T12:19:01.938Z,4.400
2023-09-27T12:19:54.798Z,4.699
2023-09-27T12:21:02.749Z,4.900
2023-09-27T12:21:55.496Z,4.599
2023-09-27T12:22:57.876Z,7.199
2023-09-27T12:23:57.594Z,6.099
2023-09-27T12:24:59.737Z,4.800
2023-09-27T12:26:03.164Z,4.199
2023-09-27T12:26:57.599Z,5.400
2023-09-27T12:27:59.675Z,4.300
2023-09-27T12:29:01.666Z,4
2023-09-27T12:29:58.628Z,4.300
2023-09-27T12:31:03.860Z,5.300
2023-09-27T12:31:57.249Z,5.199
2023-09-27T12:33:03.355Z,5.300
2023-09-27T12:33:54.276Z,5.199
2023-09-27T12:34:58.992Z,9.699
2023-09-27T12:36:01.036Z,9.300
2023-09-27T12:37:02.369Z,6.199
2023-09-27T12:37:58.218Z,6.599
2023-09-27T12:39:02.780Z,4.800
2023-09-27T12:39:55.094Z,6.400
2023-09-27T12:41:02.871Z,4.699
2023-09-27T12:41:57.695Z,5.800
2023-09-27T12:43:00.690Z,5.5
2023-09-27T12:44:01.053Z,4.199
2023-09-27T12:45:02.257Z,4.599
2023-09-27T12:45:57.715Z,4.300
2023-09-27T12:47:00.774Z,4.099
2023-09-27T12:47:59.437Z,6.5
2023-09-27T12:49:00.011Z,4.300
2023-09-27T12:50:01.642Z,3.799
2023-09-27T12:51:00.639Z,4.599
2023-09-27T12:52:04.091Z,3.400
2023-09-27T12:52:58.269Z,6.099
2023-09-27T12:54:02.637Z,4
2023-09-27T12:54:55.686Z,5.599
2023-09-27T12:56:02.514Z,4.5
2023-09-27T12:56:56.131Z,4.599
2023-09-27T12:57:59.767Z,6.599
2023-09-27T12:59:01.460Z,6.5
2023-09-27T13:00:02.406Z,5.599
2023-09-27T13:01:00.914Z,4.099
2023-09-27T13:02:06.564Z,4.199
2023-09-27T13:03:01.664Z,4.599
2023-09-27T13:04:01.824Z,5
2023-09-27T13:04:57.582Z,4.5
2023-09-27T13:06:01.907Z,3.599
2023-09-27T13:06:56.186Z,5.699
2023-09-27T13:08:00.890Z,6.099
2023-09-27T13:09:05.364Z,4.199
2023-09-27T13:09:58.360Z,4.300
2023-09-27T13:11:18.455Z,4.5
2023-09-27T13:12:11.973Z,6.300
2023-09-27T13:13:14.721Z,4.400
2023-09-27T13:13:58.392Z,4.599
2023-09-27T13:15:12.414Z,5.699
2023-09-27T13:16:10.471Z,3.5
2023-09-27T13:16:58.788Z,4.900
2023-09-27T13:19:00.383Z,4.599
2023-09-27T13:20:59.533Z,5.800
2023-09-27T13:22:06.455Z,5
2023-09-27T13:22:59.111Z,4.199
2023-09-27T13:24:00.398Z,3.799
2023-09-27T13:25:04.660Z,3.299
2023-09-27T13:27:14.891Z,3.900
2023-09-27T13:28:09.214Z,2.700
2023-09-27T13:29:05.406Z,4
2023-09-27T13:29:58.685Z,4.199
2023-09-27T13:31:21.008Z,4.400
2023-09-27T13:32:14.107Z,3.400
2023-09-27T13:33:10.527Z,2.900
2023-09-27T13:34:08.048Z,2.799
2023-09-27T13:34:56.955Z,3.599
2023-09-27T13:36:56.085Z,3.299
2023-09-27T13:37:57.759Z,3.200
2023-09-27T13:38:58.070Z,2.799
2023-09-27T13:39:59.931Z,3.299
2023-09-27T13:41:12.180Z,2.900
2023-09-27T13:42:05.246Z,3.099
2023-09-27T13:42:56.252Z,4.599
2023-09-27T13:44:02.143Z,2.700
2023-09-27T13:44:57.644Z,2.900
2023-09-27T13:47:04.363Z,3.900
2023-09-27T13:47:56.531Z,3.599
2023-09-27T13:49:01.420Z,3.099
2023-09-27T13:49:59.989Z,3.900
2023-09-27T13:51:05.081Z,4.199
2023-09-27T13:51:55.853Z,3
2023-09-27T13:53:00.990Z,3.400
2023-09-27T13:53:58.017Z,2.700
2023-09-27T13:54:58.885Z,3.900
2023-09-27T13:56:03.186Z,3.799
2023-09-27T13:57:59.450Z,3.299
2023-09-27T13:58:58.712Z,2.900
2023-09-27T13:59:59.576Z,4.099
2023-09-27T14:01:07.808Z,3.400
2023-09-27T14:02:01.206Z,4.599
2023-09-27T14:03:02.086Z,3.200
2023-09-27T14:03:55.302Z,3.400
2023-09-27T14:04:59.797Z,3.200